createdAt,value
2019-06-20T00:02:22.721Z,95.20
2019-06-20T00:04:50.147Z,95.40
2019-06-20T00:07:17.656Z,95.50
2019-06-20T00:09:46.199Z,94.80
2019-06-20T00:12:13.783Z,96.40
2019-06-20T00:14:42.634Z,95.80
2019-06-20T00:17:09.970Z,95.40
2019-06-20T00:19:37.446Z,95.90
2019-06-20T00:22:05.351Z,95.40
2019-06-20T00:24:32.833Z,95.50
2019-06-20T00:27:00.229Z,95.20
2019-06-20T00:29:27.607Z,96.30
2019-06-20T00:31:55.113Z,94.30
2019-06-20T00:34:22.442Z,93.10
2019-06-20T00:36:51.352Z,89.80
2019-06-20T00:39:19.005Z,89.10
2019-06-20T00:41:46.464Z,90.80
2019-06-20T00:44:14.103Z,90.90
2019-06-20T00:46:42.104Z,91.70
2019-06-20T00:49:09.646Z,92.00
2019-06-20T00:51:37.081Z,92.30
2019-06-20T00:54:04.700Z,92.30
2019-06-20T00:56:31.943Z,92.30
2019-06-20T00:58:59.655Z,93.50
2019-06-20T01:01:36.075Z,93.30
2019-06-20T01:04:03.645Z,94.10
2019-06-20T01:06:31.073Z,94.10
2019-06-20T01:08:58.445Z,94.10
2019-06-20T01:11:25.822Z,94.80
2019-06-20T01:13:53.169Z,93.70
2019-06-20T01:16:20.530Z,94.50
2019-06-20T01:18:47.983Z,94.90
2019-06-20T01:21:16.294Z,95.20
2019-06-20T01:23:43.920Z,95.20
2019-06-20T01:26:11.419Z,95.90
2019-06-20T01:28:39.043Z,95.80
2019-06-20T01:31:07.700Z,95.80
2019-06-20T01:33:35.159Z,95.50
2019-06-20T01:36:02.656Z,95.90
2019-06-20T01:38:30.144Z,96.10
2019-06-20T01:40:57.524Z,95.70
2019-06-20T01:43:25.056Z,96.40
2019-06-20T01:45:52.389Z,95.00
2019-06-20T01:48:20.257Z,96.40
2019-06-20T01:50:47.818Z,96.70
2019-06-20T01:53:15.421Z,96.50
2019-06-20T01:55:43.965Z,96.30
2019-06-20T01:58:11.568Z,96.40
2019-06-20T02:00:46.834Z,96.80
2019-06-20T02:03:15.985Z,96.70
2019-06-20T02:05:43.743Z,96.30
2019-06-20T02:08:11.161Z,96.70
2019-06-20T02:10:38.771Z,96.90
2019-06-20T02:13:07.236Z,96.80
2019-06-20T02:15:34.730Z,97.00
2019-06-20T02:18:02.561Z,97.30
2019-06-20T02:20:33.903Z,97.10
2019-06-20T02:23:03.182Z,96.80
2019-06-20T02:25:30.743Z,97.00
2019-06-20T02:27:58.220Z,96.20
2019-06-20T02:30:26.210Z,96.50
2019-06-20T02:32:53.551Z,96.30
2019-06-20T02:35:21.113Z,95.80
2019-06-20T02:37:49.704Z,96.20
2019-06-20T02:40:17.030Z,95.90
2019-06-20T02:42:44.579Z,95.70
2019-06-20T02:45:13.504Z,95.70
2019-06-20T02:47:41.003Z,95.10
2019-06-20T02:50:08.737Z,95.80
2019-06-20T02:52:36.201Z,96.30
2019-06-20T02:55:05.586Z,96.50
2019-06-20T02:57:33.084Z,96.10
2019-06-20T03:00:00.417Z,96.80
2019-06-20T03:02:27.718Z,97.00
2019-06-20T03:04:55.253Z,96.80
2019-06-20T03:07:22.587Z,96.60
2019-06-20T03:09:50.005Z,96.50
2019-06-20T03:12:17.682Z,96.20
2019-06-20T03:14:45.962Z,96.20
2019-06-20T03:17:13.359Z,96.50
2019-06-20T03:19:40.823Z,96.40
2019-06-20T03:22:08.281Z,96.40
2019-06-20T03:24:35.773Z,96.70
2019-06-20T03:27:03.263Z,96.50
2019-06-20T03:29:30.810Z,97.10
2019-06-20T03:31:58.286Z,97.00
2019-06-20T03:34:25.495Z,97.10
2019-06-20T03:36:52.895Z,97.20
2019-06-20T03:39:20.217Z,97.40
2019-06-20T03:41:47.679Z,97.00
2019-06-20T03:44:15.178Z,95.50
2019-06-20T03:46:42.789Z,94.70
2019-06-20T03:49:11.734Z,94.30
2019-06-20T03:51:39.061Z,94.90
2019-06-20T03:54:06.578Z,94.70
2019-06-20T03:56:33.939Z,94.80
2019-06-20T03:59:01.419Z,94.30
2019-06-20T04:01:28.728Z,94.70
2019-06-20T04:03:56.533Z,95.30
2019-06-20T04:06:23.938Z,94.80
2019-06-20T04:08:51.286Z,94.60
2019-06-20T04:11:19.159Z,94.50
2019-06-20T04:13:47.770Z,95.10
2019-06-20T04:16:15.221Z,95.20
2019-06-20T04:18:42.539Z,95.50
2019-06-20T04:21:09.998Z,95.30
2019-06-20T04:23:37.596Z,96.10
2019-06-20T04:26:04.968Z,96.40
2019-06-20T04:28:32.360Z,95.70
2019-06-20T04:31:00.168Z,95.60
2019-06-20T04:33:27.546Z,95.50
2019-06-20T04:35:55.046Z,96.50
2019-06-20T04:38:22.658Z,95.10
2019-06-20T04:40:51.013Z,95.20
2019-06-20T04:43:18.606Z,94.90
2019-06-20T04:46:11.331Z,95.30
2019-06-20T04:48:38.909Z,96.00
2019-06-20T04:51:06.391Z,97.10
2019-06-20T04:53:33.824Z,96.30
2019-06-20T04:56:05.437Z,97.00
2019-06-20T04:58:31.349Z,97.60
2019-06-20T05:00:58.661Z,98.20
2019-06-20T05:03:26.033Z,98.40
2019-06-20T05:05:53.413Z,98.20
2019-06-20T05:08:21.005Z,98.40
2019-06-20T05:10:48.507Z,98.00
2019-06-20T05:13:16.289Z,98.00
2019-06-20T05:15:52.791Z,97.50
2019-06-20T05:18:13.451Z,97.80
2019-06-20T05:20:40.882Z,97.50
2019-06-20T05:23:08.362Z,97.50
2019-06-20T05:25:35.852Z,97.50
2019-06-20T05:28:03.813Z,98.00
2019-06-20T05:30:31.284Z,97.60
2019-06-20T05:32:58.745Z,98.20
2019-06-20T05:35:26.234Z,97.70
2019-06-20T05:37:53.699Z,97.40
2019-06-20T05:40:21.267Z,97.80
2019-06-20T05:42:48.634Z,97.50
2019-06-20T05:45:16.536Z,97.40
2019-06-20T05:47:44.352Z,97.70
2019-06-20T05:50:13.283Z,94.00
2019-06-20T05:52:40.858Z,95.30
2019-06-20T05:55:08.891Z,94.80
2019-06-20T05:57:36.452Z,94.30
2019-06-20T06:00:05.118Z,93.90
2019-06-20T06:02:32.736Z,90.20
2019-06-20T06:05:00.100Z,90.40
2019-06-20T06:07:27.741Z,89.40
2019-06-20T06:09:55.496Z,90.10
2019-06-20T06:12:22.983Z,90.30
2019-06-20T06:14:50.292Z,88.60
2019-06-20T06:17:17.967Z,89.60
2019-06-20T06:19:45.346Z,90.50
2019-06-20T06:22:12.716Z,90.80
2019-06-20T06:24:40.042Z,89.30
2019-06-20T06:27:07.526Z,89.10
2019-06-20T06:29:34.975Z,90.10
2019-06-20T06:32:03.031Z,89.10
2019-06-20T06:34:30.694Z,88.90
2019-06-20T06:36:58.174Z,90.00
2019-06-20T06:39:25.661Z,89.60
2019-06-20T06:41:53.151Z,87.80
2019-06-20T06:44:21.779Z,88.50
2019-06-20T06:46:55.470Z,87.90
2019-06-20T06:49:19.045Z,87.90
2019-06-20T06:51:46.378Z,90.00
2019-06-20T06:54:13.904Z,89.10
2019-06-20T06:56:41.245Z,88.40
2019-06-20T06:59:08.766Z,89.10
2019-06-20T07:01:36.416Z,89.60
2019-06-20T07:04:04.569Z,87.20
2019-06-20T07:06:31.931Z,86.80
2019-06-20T07:08:59.259Z,85.20
2019-06-20T07:11:26.787Z,85.00
2019-06-20T07:13:54.162Z,86.00
2019-06-20T07:16:21.523Z,85.70
2019-06-20T07:18:49.331Z,85.80
2019-06-20T07:21:17.781Z,85.40
2019-06-20T07:23:45.308Z,85.90
2019-06-20T07:26:12.968Z,85.20
2019-06-20T07:28:40.383Z,84.10
2019-06-20T07:31:07.736Z,84.70
2019-06-20T07:33:35.398Z,85.50
2019-06-20T07:36:02.783Z,85.50
2019-06-20T07:38:30.189Z,85.00
2019-06-20T07:40:57.553Z,84.60
2019-06-20T07:43:25.044Z,86.30
2019-06-20T07:46:02.643Z,85.30
2019-06-20T07:48:21.637Z,83.90
2019-06-20T07:50:49.061Z,85.50
2019-06-20T07:53:16.855Z,83.60
2019-06-20T07:55:44.189Z,82.30
2019-06-20T07:58:11.665Z,83.50
2019-06-20T08:00:39.500Z,82.70
2019-06-20T08:03:06.991Z,81.80
2019-06-20T08:05:35.392Z,82.60
2019-06-20T08:08:03.287Z,83.00
2019-06-20T08:10:30.659Z,83.00
2019-06-20T08:12:57.999Z,83.10
2019-06-20T08:15:26.306Z,82.20
2019-06-20T08:17:53.768Z,80.70
2019-06-20T08:20:21.502Z,81.80
2019-06-20T08:22:49.071Z,82.00
2019-06-20T08:25:16.962Z,82.50
2019-06-20T08:27:50.686Z,82.70
2019-06-20T08:30:26.826Z,81.70
2019-06-20T08:32:54.226Z,81.00
2019-06-20T08:35:23.218Z,82.00
2019-06-20T08:37:51.483Z,81.50
2019-06-20T08:40:19.327Z,80.50
2019-06-20T08:42:46.924Z,80.70
2019-06-20T08:45:15.003Z,78.70
2019-06-20T08:47:42.527Z,78.40
2019-06-20T08:50:10.213Z,79.50
2019-06-20T08:52:37.719Z,80.00
2019-06-20T08:55:05.962Z,80.50
2019-06-20T08:57:33.412Z,80.60
2019-06-20T09:00:00.866Z,81.30
2019-06-20T09:02:28.256Z,80.10
2019-06-20T09:04:56.504Z,80.00
2019-06-20T09:07:23.904Z,80.90
2019-06-20T09:09:51.281Z,82.10
2019-06-20T09:12:18.805Z,81.10
2019-06-20T09:14:46.307Z,81.20
2019-06-20T09:17:13.776Z,81.30
2019-06-20T09:19:41.834Z,81.60
2019-06-20T09:22:09.307Z,81.90
2019-06-20T09:24:36.728Z,82.20
2019-06-20T09:27:04.328Z,81.80
2019-06-20T09:29:41.338Z,82.00
2019-06-20T09:32:01.195Z,82.60
2019-06-20T09:34:28.699Z,80.40
2019-06-20T09:36:57.442Z,81.00
2019-06-20T09:39:24.895Z,80.60
2019-06-20T09:41:52.704Z,81.60
2019-06-20T09:44:20.095Z,79.70
2019-06-20T09:46:47.516Z,79.60
2019-06-20T09:49:14.844Z,80.00
2019-06-20T09:51:42.177Z,79.90
2019-06-20T09:54:09.646Z,80.50
2019-06-20T09:56:37.009Z,80.60
2019-06-20T09:59:04.468Z,79.50
2019-06-20T10:01:31.862Z,78.60
2019-06-20T10:03:59.436Z,78.00
2019-06-20T10:06:27.193Z,76.00
2019-06-20T10:08:56.566Z,74.60
2019-06-20T10:11:24.184Z,77.30
2019-06-20T10:13:52.219Z,77.50
2019-06-20T10:16:19.933Z,79.10
2019-06-20T10:18:50.050Z,77.00
2019-06-20T10:21:17.685Z,76.90
2019-06-20T10:23:46.184Z,75.70
2019-06-20T10:26:14.581Z,75.10
2019-06-20T10:28:42.057Z,75.10
2019-06-20T10:31:09.568Z,75.80
2019-06-20T10:33:38.891Z,74.60
2019-06-20T10:36:06.961Z,75.20
2019-06-20T10:38:35.663Z,73.40
2019-06-20T10:41:03.158Z,72.50
2019-06-20T10:43:31.049Z,74.60
2019-06-20T10:45:58.817Z,73.60
2019-06-20T10:48:26.305Z,75.20
2019-06-20T10:50:56.671Z,74.20
2019-06-20T10:53:24.181Z,75.10
2019-06-20T10:55:51.662Z,75.30
2019-06-20T10:58:18.857Z,77.00
2019-06-20T11:00:46.178Z,77.10
2019-06-20T11:03:13.746Z,76.10
2019-06-20T11:05:42.300Z,76.60
2019-06-20T11:08:10.702Z,76.00
2019-06-20T11:10:38.665Z,76.50
2019-06-20T11:13:07.425Z,75.70
2019-06-20T11:15:34.978Z,76.00
2019-06-20T11:18:02.613Z,74.60
2019-06-20T11:20:30.080Z,74.80
2019-06-20T11:22:57.372Z,74.40
2019-06-20T11:25:26.153Z,74.80
2019-06-20T11:27:53.459Z,73.90
2019-06-20T11:30:21.442Z,74.20
2019-06-20T11:32:48.923Z,73.60
2019-06-20T11:35:16.549Z,73.50
2019-06-20T11:37:44.733Z,73.40
2019-06-20T11:40:13.159Z,74.00
2019-06-20T11:42:41.962Z,74.10
2019-06-20T11:45:11.737Z,73.20
2019-06-20T11:47:40.495Z,74.00
2019-06-20T11:50:09.693Z,73.90
2019-06-20T11:52:42.107Z,73.30
2019-06-20T11:55:06.738Z,73.60
2019-06-20T11:57:34.193Z,73.30
2019-06-20T12:00:01.783Z,73.50
2019-06-20T12:02:30.498Z,73.50
2019-06-20T12:04:58.141Z,73.10
2019-06-20T12:07:25.913Z,71.90
2019-06-20T12:09:53.254Z,72.40
2019-06-20T12:12:21.015Z,71.50
2019-06-20T12:14:48.586Z,71.40
2019-06-20T12:17:16.122Z,71.30
2019-06-20T12:19:44.584Z,71.00
2019-06-20T12:22:12.484Z,70.70
2019-06-20T12:24:41.273Z,71.80
2019-06-20T12:27:10.178Z,72.10
2019-06-20T12:29:38.947Z,72.20
2019-06-20T12:32:09.971Z,73.30
2019-06-20T12:34:38.843Z,73.40
2019-06-20T12:37:06.340Z,72.50
2019-06-20T12:39:33.849Z,72.60
2019-06-20T12:42:01.328Z,72.00
2019-06-20T12:44:28.612Z,73.10
2019-06-20T12:46:55.943Z,71.90
2019-06-20T12:49:24.065Z,70.10
2019-06-20T12:51:51.805Z,70.20
2019-06-20T12:54:19.757Z,70.50
2019-06-20T12:56:48.281Z,70.20
2019-06-20T12:59:16.919Z,71.40
2019-06-20T13:01:47.746Z,72.00
2019-06-20T13:04:14.178Z,70.70
2019-06-20T13:06:42.252Z,71.20
2019-06-20T13:09:09.793Z,70.30
2019-06-20T13:11:39.049Z,70.30
2019-06-20T13:14:06.830Z,70.30
2019-06-20T13:16:34.139Z,70.50
2019-06-20T13:19:01.449Z,69.80
2019-06-20T13:21:28.906Z,70.40
2019-06-20T13:23:56.222Z,70.90
2019-06-20T13:26:23.676Z,71.60
2019-06-20T13:29:03.526Z,71.20
2019-06-20T13:31:20.397Z,72.10
2019-06-20T13:33:48.939Z,71.50
2019-06-20T13:36:16.607Z,72.40
2019-06-20T13:38:44.532Z,72.60
2019-06-20T13:41:12.094Z,72.50
2019-06-20T13:43:39.498Z,72.40
2019-06-20T13:46:07.033Z,72.70
2019-06-20T13:48:34.364Z,72.70
2019-06-20T13:51:01.863Z,72.00
2019-06-20T13:53:29.372Z,72.20
2019-06-20T13:55:56.732Z,71.40
2019-06-20T13:58:24.213Z,71.40
2019-06-20T14:00:52.718Z,72.00
2019-06-20T14:03:20.466Z,72.60
2019-06-20T14:05:49.786Z,72.50
2019-06-20T14:08:18.374Z,72.60
2019-06-20T14:10:46.471Z,72.60
2019-06-20T14:13:19.530Z,72.00
2019-06-20T14:15:46.141Z,72.80
2019-06-20T14:18:14.417Z,71.60
2019-06-20T14:20:43.177Z,72.10
2019-06-20T14:23:11.190Z,71.10
2019-06-20T14:25:38.689Z,71.00
2019-06-20T14:28:06.145Z,71.40
2019-06-20T14:30:33.450Z,71.10
2019-06-20T14:33:00.833Z,70.90
2019-06-20T14:35:28.273Z,70.70
2019-06-20T14:37:55.786Z,71.00
2019-06-20T14:40:23.239Z,70.40
2019-06-20T14:42:52.190Z,69.80
2019-06-20T14:45:21.268Z,69.50
2019-06-20T14:47:48.800Z,68.40
2019-06-20T14:50:16.621Z,69.60
2019-06-20T14:52:46.136Z,68.70
2019-06-20T14:55:13.682Z,68.80
2019-06-20T14:57:41.071Z,68.50
2019-06-20T15:00:09.101Z,67.30
2019-06-20T15:02:38.793Z,68.00
2019-06-20T15:05:12.745Z,66.70
2019-06-20T15:07:40.209Z,65.00
2019-06-20T15:10:08.236Z,65.80
2019-06-20T15:12:35.621Z,64.80
2019-06-20T15:15:03.317Z,65.20
2019-06-20T15:17:30.828Z,65.70
2019-06-20T15:19:58.253Z,65.60
2019-06-20T15:22:25.779Z,65.80
2019-06-20T15:24:53.902Z,66.00
2019-06-20T15:27:22.395Z,66.70
2019-06-20T15:29:50.504Z,67.50
2019-06-20T15:32:18.178Z,68.20
2019-06-20T15:34:47.620Z,68.20
2019-06-20T15:37:15.020Z,68.80
2019-06-20T15:39:42.371Z,69.60
2019-06-20T15:42:10.182Z,71.70
2019-06-20T15:44:37.658Z,71.50
2019-06-20T15:47:06.166Z,69.60
2019-06-20T15:49:33.616Z,68.90
2019-06-20T15:52:01.137Z,68.20
2019-06-20T15:54:29.061Z,67.20
2019-06-20T15:56:56.526Z,67.70
2019-06-20T15:59:24.217Z,68.90
2019-06-20T16:01:51.559Z,68.30
2019-06-20T16:04:19.058Z,68.20
2019-06-20T16:06:46.400Z,67.60
2019-06-20T16:09:13.910Z,68.40
2019-06-20T16:11:41.372Z,68.30
2019-06-20T16:14:09.577Z,68.80
2019-06-20T16:16:37.147Z,69.90
2019-06-20T16:19:04.641Z,69.50
2019-06-20T16:21:32.099Z,70.10
2019-06-20T16:23:59.573Z,70.40
2019-06-20T16:26:28.675Z,70.80
2019-06-20T16:28:56.015Z,72.70
2019-06-20T16:31:27.046Z,73.50
2019-06-20T16:33:52.998Z,75.30
2019-06-20T16:36:20.359Z,75.70
2019-06-20T16:38:47.727Z,75.20
2019-06-20T16:41:15.095Z,74.20
2019-06-20T16:43:42.595Z,74.70
2019-06-20T16:46:09.943Z,74.60
2019-06-20T16:48:37.451Z,73.00
2019-06-20T16:51:04.930Z,72.50
2019-06-20T16:53:32.278Z,72.10
2019-06-20T16:56:01.094Z,71.50
2019-06-20T16:58:29.038Z,72.90
2019-06-20T17:00:56.372Z,72.00
2019-06-20T17:03:38.058Z,72.50
2019-06-20T17:05:53.651Z,72.10
2019-06-20T17:08:21.447Z,72.50
2019-06-20T17:10:48.912Z,72.90
2019-06-20T17:13:16.403Z,72.70
2019-06-20T17:15:43.763Z,72.50
2019-06-20T17:18:11.321Z,72.80
2019-06-20T17:20:39.350Z,74.50
2019-06-20T17:23:07.016Z,74.80
2019-06-20T17:25:34.549Z,74.80
2019-06-20T17:28:02.404Z,75.10
2019-06-20T17:30:29.844Z,74.40
2019-06-20T17:32:57.411Z,74.10
2019-06-20T17:35:25.056Z,74.50
2019-06-20T17:37:52.694Z,75.40
2019-06-20T17:40:21.048Z,75.90
2019-06-20T17:42:48.615Z,75.60
2019-06-20T17:45:16.536Z,75.80
2019-06-20T17:47:44.039Z,75.90
2019-06-20T17:50:13.135Z,75.40
2019-06-20T17:52:40.510Z,75.90
2019-06-20T17:55:09.787Z,76.40
2019-06-20T17:57:37.134Z,77.20
2019-06-20T18:00:06.424Z,77.40
2019-06-20T18:02:34.216Z,78.20
2019-06-20T18:05:02.148Z,77.60
2019-06-20T18:07:30.006Z,78.40
2019-06-20T18:09:57.655Z,78.80
2019-06-20T18:12:25.074Z,78.30
2019-06-20T18:14:52.675Z,78.10
2019-06-20T18:17:20.080Z,78.30
2019-06-20T18:19:47.555Z,79.10
2019-06-20T18:22:15.242Z,77.90
2019-06-20T18:24:42.869Z,76.60
2019-06-20T18:27:10.469Z,76.90
2019-06-20T18:29:38.123Z,75.20
2019-06-20T18:32:06.057Z,76.20
2019-06-20T18:34:34.600Z,76.20
2019-06-20T18:37:03.152Z,74.60
2019-06-20T18:39:31.152Z,74.80
2019-06-20T18:41:58.728Z,75.40
2019-06-20T18:44:26.099Z,75.60
2019-06-20T18:46:53.628Z,74.40
2019-06-20T18:49:21.390Z,73.80
2019-06-20T18:51:49.284Z,74.30
2019-06-20T18:54:16.690Z,74.00
2019-06-20T18:56:44.054Z,74.00
2019-06-20T18:59:11.396Z,74.50
2019-06-20T19:01:39.170Z,74.30
2019-06-20T19:04:06.699Z,74.70
2019-06-20T19:06:36.266Z,74.60
2019-06-20T19:09:07.137Z,74.50
2019-06-20T19:11:35.275Z,74.40
2019-06-20T19:14:02.624Z,74.90
2019-06-20T19:16:29.969Z,75.10
2019-06-20T19:18:57.347Z,75.00
2019-06-20T19:21:24.826Z,75.10
2019-06-20T19:23:55.286Z,75.20
2019-06-20T19:26:21.877Z,76.20
2019-06-20T19:28:49.251Z,76.20
2019-06-20T19:31:20.229Z,75.70
2019-06-20T19:33:51.842Z,75.50
2019-06-20T19:36:18.118Z,75.70
2019-06-20T19:38:46.672Z,75.90
2019-06-20T19:41:14.198Z,76.10
2019-06-20T19:43:41.825Z,76.20
2019-06-20T19:46:09.179Z,76.60
2019-06-20T19:48:36.936Z,76.30
2019-06-20T19:51:04.908Z,76.50
2019-06-20T19:53:32.386Z,76.90
2019-06-20T19:55:59.708Z,76.80
2019-06-20T19:58:27.034Z,76.90
2019-06-20T20:00:54.726Z,76.70
2019-06-20T20:03:22.153Z,76.80
2019-06-20T20:05:49.650Z,77.10
2019-06-20T20:08:17.509Z,76.40
2019-06-20T20:10:46.213Z,76.80
2019-06-20T20:13:15.485Z,76.70
2019-06-20T20:15:43.708Z,76.90
2019-06-20T20:18:11.450Z,76.80
2019-06-20T20:20:39.778Z,76.90
2019-06-20T20:23:07.069Z,77.40
2019-06-20T20:25:35.777Z,77.50
2019-06-20T20:28:03.217Z,77.40
2019-06-20T20:30:30.536Z,78.00
2019-06-20T20:32:58.137Z,77.70
2019-06-20T20:35:35.383Z,77.90
2019-06-20T20:37:54.953Z,78.20
2019-06-20T20:40:23.794Z,78.30
2019-06-20T20:42:51.374Z,78.20
2019-06-20T20:45:19.361Z,78.20
2019-06-20T20:47:46.879Z,78.40
2019-06-20T20:50:15.526Z,78.80
2019-06-20T20:52:43.072Z,79.10
2019-06-20T20:55:11.153Z,79.60
2019-06-20T20:57:38.633Z,79.20
2019-06-20T21:00:06.123Z,79.60
2019-06-20T21:02:34.278Z,79.50
2019-06-20T21:05:01.658Z,79.50
2019-06-20T21:07:29.013Z,79.90
2019-06-20T21:09:56.667Z,80.00
2019-06-20T21:12:24.034Z,80.20
2019-06-20T21:14:51.449Z,80.10
2019-06-20T21:17:18.944Z,80.40
2019-06-20T21:19:46.395Z,80.60
2019-06-20T21:22:13.772Z,80.60
2019-06-20T21:24:41.065Z,81.20
2019-06-20T21:27:08.693Z,81.20
2019-06-20T21:29:36.057Z,81.20
2019-06-20T21:32:03.518Z,81.40
2019-06-20T21:34:31.007Z,81.20
2019-06-20T21:36:58.343Z,81.10
2019-06-20T21:39:26.043Z,81.20
2019-06-20T21:41:53.543Z,81.40
2019-06-20T21:44:20.946Z,81.40
2019-06-20T21:46:48.654Z,81.70
2019-06-20T21:49:16.172Z,81.80
2019-06-20T21:51:44.811Z,81.50
2019-06-20T21:54:12.443Z,81.80
2019-06-20T21:56:39.766Z,81.90
2019-06-20T21:59:07.194Z,82.60
2019-06-20T22:01:35.273Z,82.30
2019-06-20T22:04:04.077Z,81.60
2019-06-20T22:06:31.493Z,81.80
2019-06-20T22:08:58.851Z,82.20
2019-06-20T22:11:26.320Z,82.20
2019-06-20T22:13:53.658Z,82.00
2019-06-20T22:16:21.032Z,82.90
2019-06-20T22:18:48.341Z,82.60
2019-06-20T22:21:15.805Z,82.50
2019-06-20T22:23:43.210Z,82.10
2019-06-20T22:26:10.660Z,82.40
2019-06-20T22:28:38.330Z,82.60
2019-06-20T22:31:05.807Z,82.50
2019-06-20T22:33:33.173Z,82.60
2019-06-20T22:36:00.523Z,83.00
2019-06-20T22:38:27.862Z,83.00
2019-06-20T22:40:55.247Z,82.60
2019-06-20T22:43:22.716Z,83.40
2019-06-20T22:45:50.176Z,82.90
2019-06-20T22:48:17.645Z,83.00
2019-06-20T22:50:45.477Z,83.20
2019-06-20T22:53:13.067Z,83.30
2019-06-20T22:55:40.433Z,83.60
2019-06-20T22:58:07.781Z,83.70
2019-06-20T23:00:35.246Z,83.90
2019-06-20T23:03:03.689Z,83.60
2019-06-20T23:05:31.063Z,83.40
2019-06-20T23:07:59.586Z,83.60
2019-06-20T23:10:26.917Z,83.40
2019-06-20T23:12:54.759Z,83.00
2019-06-20T23:15:22.369Z,82.60
2019-06-20T23:17:49.821Z,83.00
2019-06-20T23:20:19.584Z,82.70
2019-06-20T23:22:47.093Z,82.20
2019-06-20T23:25:15.134Z,82.80
2019-06-20T23:27:42.625Z,83.10
2019-06-20T23:30:12.320Z,82.50
2019-06-20T23:32:39.637Z,82.50
2019-06-20T23:35:08.061Z,82.50
2019-06-20T23:37:35.562Z,82.30
2019-06-20T23:40:03.488Z,82.80
2019-06-20T23:42:31.024Z,82.80
2019-06-20T23:44:58.514Z,82.90
2019-06-20T23:47:25.944Z,83.00
2019-06-20T23:49:53.306Z,83.10
2019-06-20T23:52:23.355Z,83.30
2019-06-20T23:54:50.909Z,83.10
2019-06-20T23:57:18.879Z,83.60
2019-06-20T23:59:46.343Z,83.80
